Date,TemperatureHighF,TemperatureAvgF,TemperatureLowF,DewpointHighF,DewpointAvgF,DewpointLowF,HumidityHigh,HumidityAvg,HumidityLow,PressureMaxIn,PressureMinIn,WindSpeedMaxMPH,WindSpeedAvgMPH,GustSpeedMaxMPH,PrecipitationSumIn
2013-3-1,45.0,33.6,11.0,24.4,19.3,-9.1,82,56,25,30.34,30.23,180,13,315,0.00
2013-3-2,60.0,41.5,1.0,30.2,24.5,-27.3,89,54,23,34.32,30.09,225,10,315,0.00
2013-3-3,63.0,44.8,2.0,32.3,25.5,-21.7,77,50,24,34.32,29.70,247,12,315,0.00
2013-3-4,47.0,26.8,3.0,29.8,18.0,-23.9,95,71,24,30.28,29.76,67,13,360,0.06
2013-3-5,39.0,22.2,2.0,21.4,12.6,-41.4,100,72,9,30.32,30.18,157,9,360,0.00
2013-3-6,53.0,31.6,3.0,28.3,19.4,-39.6,100,67,11,30.20,29.89,180,7,337,0.00
2013-3-7,63.0,40.5,2.0,32.5,22.7,-23.6,88,54,21,77.32,29.91,157,9,360,0.00
2013-3-8,52.0,33.3,2.0,36.1,25.6,-28.1,95,75,22,30.06,29.80,180,6,360,0.00
2013-3-9,39.0,31.0,1.0,31.6,21.3,-26.6,99,69,23,30.16,29.77,35,17,337,0.00
2013-3-10,49.0,32.7,1.0,21.1,14.8,-29.0,90,51,20,30.18,30.05,32,12,337,0.00
2013-3-11,53.0,38.6,3.0,31.0,21.6,-15.4,100,56,26,30.21,29.92,247,14,337,0.00
2013-3-12,35.0,26.9,1.0,29.5,23.3,-26.4,100,88,20,30.33,30.21,180,9,360,0.16
2013-3-13,60.0,38.9,3.0,39.2,28.5,-26.4,100,71,20,30.28,30.17,180,8,360,0.00
2013-3-14,70.0,51.3,1.0,34.1,28.7,-17.7,79,45,23,32.32,30.12,247,9,360,0.00
2013-3-15,73.0,56.0,2.0,38.6,28.3,-16.3,71,38,19,30.16,25.32,225,11,360,0.00
2013-3-16,53.0,43.7,3.0,37.2,29.9,-12.7,85,59,30,30.10,29.86,135,8,337,0.00
2013-3-17,54.0,36.4,4.0,35.2,21.6,-23.8,100,61,22,29.92,29.62,247,14,360,0.00
2013-3-18,48.0,35.2,3.0,20.0,9.4,-27.5,56,35,18,34.32,29.87,225,14,315,0.00
2013-3-19,51.0,36.8,1.0,18.2,6.4,-24.3,88,34,10,33.32,29.97,247,16,360,0.00
2013-3-20,45.0,28.0,2.0,23.8,15.2,-40.7,100,64,9,30.38,29.84,225,8,360,0.00
2013-3-21,51.0,37.0,6.0,39.2,20.0,-22.3,81,53,22,31.32,29.32,247,10,360,0.00
2013-3-22,41.0,29.1,3.0,30.0,16.9,-23.1,100,64,22,30.01,29.83,225,12,360,0.00
2013-3-23,24.0,18.1,2.0,23.3,12.6,-30.0,100,83,8,30.23,29.99,30,12,360,0.00
2013-3-24,32.0,17.7,1.0,20.1,7.8,-60.7,100,71,3,30.26,30.08,247,10,292,0.00
2013-3-25,34.0,21.0,10.0,23.8,13.9,-19.9,100,77,20,30.29,30.18,180,9,360,0.00
2013-3-26,52.0,29.1,2.0,32.5,16.6,-45.8,100,67,8,30.26,29.95,180,7,360,0.00
2013-3-27,54.0,38.1,1.0,39.8,28.8,-22.6,100,73,25,30.18,30.04,180,8,360,0.00
2013-3-28,67.0,44.3,6.0,38.2,27.7,-21.5,98,59,24,32.32,30.01,247,9,360,0.00
2013-3-29,66.0,45.6,1.0,37.7,28.9,-20.8,85,56,26,33.32,30.03,247,10,337,0.00
2013-3-30,60.0,41.0,16.0,42.1,35.6,-2.1,100,84,34,30.26,30.04,247,8,360,0.10
2013-3-31,69.0,41.4,4.0,44.9,26.9,-26.4,100,65,19,34.32,23.32,225,10,360,0.00